sensor_id;sensor_type;location;lat;lon;timestamp;P1;durP1;ratioP1;P2;durP2;ratioP2
11185;SDS011;5649;52.422;13.754;2022-08-30T00:00:28;6.30;;;2.37;;
11185;SDS011;5649;52.422;13.754;2022-08-30T00:03:13;24.37;;;1.80;;
11185;SDS011;5649;52.422;13.754;2022-08-30T00:05:40;1.50;;;1.40;;
11185;SDS011;5649;52.422;13.754;2022-08-30T00:08:06;4.17;;;1.60;;
11185;SDS011;5649;52.422;13.754;2022-08-30T00:10:32;2.40;;;1.83;;
11185;SDS011;5649;52.422;13.754;2022-08-30T00:12:58;7.40;;;1.70;;
11185;SDS011;5649;52.422;13.754;2022-08-30T00:15:24;1.93;;;1.50;;
11185;SDS011;5649;52.422;13.754;2022-08-30T00:17:51;8.30;;;1.53;;
11185;SDS011;5649;52.422;13.754;2022-08-30T00:20:18;2.30;;;1.87;;
11185;SDS011;5649;52.422;13.754;2022-08-30T00:22:44;3.10;;;1.70;;
11185;SDS011;5649;52.422;13.754;2022-08-30T00:25:11;1.80;;;1.70;;
11185;SDS011;5649;52.422;13.754;2022-08-30T00:27:37;3.77;;;1.67;;
11185;SDS011;5649;52.422;13.754;2022-08-30T00:30:04;2.47;;;1.63;;
11185;SDS011;5649;52.422;13.754;2022-08-30T00:32:31;1.60;;;1.50;;
11185;SDS011;5649;52.422;13.754;2022-08-30T00:34:57;4.10;;;1.87;;
11185;SDS011;5649;52.422;13.754;2022-08-30T00:37:23;2.50;;;1.37;;
11185;SDS011;5649;52.422;13.754;2022-08-30T00:39:49;3.00;;;1.90;;
11185;SDS011;5649;52.422;13.754;2022-08-30T00:42:16;2.77;;;1.37;;
11185;SDS011;5649;52.422;13.754;2022-08-30T00:44:43;5.43;;;1.50;;
11185;SDS011;5649;52.422;13.754;2022-08-30T00:47:09;3.67;;;1.43;;
11185;SDS011;5649;52.422;13.754;2022-08-30T00:49:36;3.10;;;1.63;;
11185;SDS011;5649;52.422;13.754;2022-08-30T00:52:03;1.30;;;1.10;;
11185;SDS011;5649;52.422;13.754;2022-08-30T00:54:30;1.80;;;1.23;;
11185;SDS011;5649;52.422;13.754;2022-08-30T00:56:56;1.93;;;1.20;;
11185;SDS011;5649;52.422;13.754;2022-08-30T00:59:23;1.60;;;1.50;;
11185;SDS011;5649;52.422;13.754;2022-08-30T01:01:50;1.90;;;1.23;;
11185;SDS011;5649;52.422;13.754;2022-08-30T01:04:16;3.37;;;1.43;;
11185;SDS011;5649;52.422;13.754;2022-08-30T01:06:45;1.77;;;1.57;;
11185;SDS011;5649;52.422;13.754;2022-08-30T01:09:11;1.10;;;1.10;;
11185;SDS011;5649;52.422;13.754;2022-08-30T01:11:38;2.27;;;1.40;;
11185;SDS011;5649;52.422;13.754;2022-08-30T01:14:06;12.93;;;1.57;;
11185;SDS011;5649;52.422;13.754;2022-08-30T01:16:33;4.10;;;1.40;;
11185;SDS011;5649;52.422;13.754;2022-08-30T01:19:00;2.50;;;1.73;;
11185;SDS011;5649;52.422;13.754;2022-08-30T01:21:28;1.80;;;1.50;;
11185;SDS011;5649;52.422;13.754;2022-08-30T01:23:55;1.20;;;1.10;;
11185;SDS011;5649;52.422;13.754;2022-08-30T01:26:22;2.97;;;1.40;;
11185;SDS011;5649;52.422;13.754;2022-08-30T01:28:49;1.10;;;1.10;;
11185;SDS011;5649;52.422;13.754;2022-08-30T01:31:16;6.83;;;1.43;;
11185;SDS011;5649;52.422;13.754;2022-08-30T01:33:43;1.00;;;1.00;;
11185;SDS011;5649;52.422;13.754;2022-08-30T01:36:10;4.13;;;1.17;;
11185;SDS011;5649;52.422;13.754;2022-08-30T01:38:38;1.47;;;1.20;;
11185;SDS011;5649;52.422;13.754;2022-08-30T01:41:09;1.27;;;1.17;;
11185;SDS011;5649;52.422;13.754;2022-08-30T01:43:36;7.13;;;1.40;;
11185;SDS011;5649;52.422;13.754;2022-08-30T01:46:02;1.63;;;1.47;;
11185;SDS011;5649;52.422;13.754;2022-08-30T01:48:28;1.50;;;1.27;;
11185;SDS011;5649;52.422;13.754;2022-08-30T01:50:54;3.93;;;1.60;;
11185;SDS011;5649;52.422;13.754;2022-08-30T01:53:20;1.67;;;1.57;;
11185;SDS011;5649;52.422;13.754;2022-08-30T01:55:46;1.47;;;1.37;;
11185;SDS011;5649;52.422;13.754;2022-08-30T01:58:12;1.70;;;1.50;;
11185;SDS011;5649;52.422;13.754;2022-08-30T02:00:38;1.50;;;1.40;;
11185;SDS011;5649;52.422;13.754;2022-08-30T02:03:04;7.37;;;1.37;;
11185;SDS011;5649;52.422;13.754;2022-08-30T02:05:31;10.73;;;1.63;;
11185;SDS011;5649;52.422;13.754;2022-08-30T02:07:57;1.60;;;1.50;;
11185;SDS011;5649;52.422;13.754;2022-08-30T02:10:23;1.33;;;1.30;;
11185;SDS011;5649;52.422;13.754;2022-08-30T02:12:49;1.90;;;1.67;;
11185;SDS011;5649;52.422;13.754;2022-08-30T02:15:16;1.47;;;1.20;;
11185;SDS011;5649;52.422;13.754;2022-08-30T02:17:42;1.20;;;1.10;;
11185;SDS011;5649;52.422;13.754;2022-08-30T02:20:08;4.73;;;2.97;;
11185;SDS011;5649;52.422;13.754;2022-08-30T02:22:35;1.50;;;1.40;;
11185;SDS011;5649;52.422;13.754;2022-08-30T02:25:02;2.60;;;1.50;;
11185;SDS011;5649;52.422;13.754;2022-08-30T02:27:28;5.43;;;1.17;;
11185;SDS011;5649;52.422;13.754;2022-08-30T02:29:54;3.73;;;1.53;;
11185;SDS011;5649;52.422;13.754;2022-08-30T02:32:20;2.43;;;1.40;;
11185;SDS011;5649;52.422;13.754;2022-08-30T02:34:46;2.30;;;1.53;;
11185;SDS011;5649;52.422;13.754;2022-08-30T02:37:12;1.97;;;1.57;;
11185;SDS011;5649;52.422;13.754;2022-08-30T02:39:39;2.30;;;2.13;;
11185;SDS011;5649;52.422;13.754;2022-08-30T02:42:05;2.87;;;1.57;;
11185;SDS011;5649;52.422;13.754;2022-08-30T02:44:31;5.00;;;2.50;;
11185;SDS011;5649;52.422;13.754;2022-08-30T02:46:57;3.33;;;2.33;;
11185;SDS011;5649;52.422;13.754;2022-08-30T02:49:23;2.23;;;2.03;;
11185;SDS011;5649;52.422;13.754;2022-08-30T02:51:49;8.93;;;2.30;;
11185;SDS011;5649;52.422;13.754;2022-08-30T02:54:15;2.70;;;2.37;;
11185;SDS011;5649;52.422;13.754;2022-08-30T02:56:44;2.63;;;2.43;;
11185;SDS011;5649;52.422;13.754;2022-08-30T02:59:12;2.53;;;2.23;;
11185;SDS011;5649;52.422;13.754;2022-08-30T03:01:38;3.17;;;2.40;;
11185;SDS011;5649;52.422;13.754;2022-08-30T03:04:04;4.87;;;3.00;;
11185;SDS011;5649;52.422;13.754;2022-08-30T03:06:31;2.40;;;2.20;;
11185;SDS011;5649;52.422;13.754;2022-08-30T03:08:57;2.67;;;2.40;;
11185;SDS011;5649;52.422;13.754;2022-08-30T03:11:23;3.50;;;2.17;;
11185;SDS011;5649;52.422;13.754;2022-08-30T03:13:49;8.23;;;2.80;;
11185;SDS011;5649;52.422;13.754;2022-08-30T03:16:15;2.47;;;2.27;;
11185;SDS011;5649;52.422;13.754;2022-08-30T03:18:41;3.90;;;3.00;;
11185;SDS011;5649;52.422;13.754;2022-08-30T03:21:11;2.73;;;2.50;;
11185;SDS011;5649;52.422;13.754;2022-08-30T03:23:37;2.50;;;2.30;;
11185;SDS011;5649;52.422;13.754;2022-08-30T03:26:04;2.80;;;2.60;;
11185;SDS011;5649;52.422;13.754;2022-08-30T03:28:30;4.73;;;3.10;;
11185;SDS011;5649;52.422;13.754;2022-08-30T03:30:56;2.73;;;2.50;;
11185;SDS011;5649;52.422;13.754;2022-08-30T03:33:22;1.90;;;1.80;;
11185;SDS011;5649;52.422;13.754;2022-08-30T03:35:48;3.50;;;2.60;;
11185;SDS011;5649;52.422;13.754;2022-08-30T03:38:14;6.90;;;2.97;;
11185;SDS011;5649;52.422;13.754;2022-08-30T03:40:40;4.07;;;3.77;;
11185;SDS011;5649;52.422;13.754;2022-08-30T03:43:07;4.33;;;2.97;;
11185;SDS011;5649;52.422;13.754;2022-08-30T03:45:33;5.37;;;3.80;;
11185;SDS011;5649;52.422;13.754;2022-08-30T03:47:59;4.40;;;3.67;;
11185;SDS011;5649;52.422;13.754;2022-08-30T03:50:26;3.57;;;2.77;;
11185;SDS011;5649;52.422;13.754;2022-08-30T03:52:52;3.70;;;3.20;;
11185;SDS011;5649;52.422;13.754;2022-08-30T03:55:19;32.40;;;17.40;;
11185;SDS011;5649;52.422;13.754;2022-08-30T03:57:45;8.23;;;3.50;;
11185;SDS011;5649;52.422;13.754;2022-08-30T04:00:12;6.80;;;4.40;;
11185;SDS011;5649;52.422;13.754;2022-08-30T04:02:38;5.90;;;3.70;;
11185;SDS011;5649;52.422;13.754;2022-08-30T04:05:04;13.43;;;3.90;;
11185;SDS011;5649;52.422;13.754;2022-08-30T04:07:31;2.63;;;2.23;;
11185;SDS011;5649;52.422;13.754;2022-08-30T04:09:57;5.27;;;2.97;;
11185;SDS011;5649;52.422;13.754;2022-08-30T04:12:23;3.80;;;3.30;;
11185;SDS011;5649;52.422;13.754;2022-08-30T04:14:49;7.00;;;4.20;;
11185;SDS011;5649;52.422;13.754;2022-08-30T04:17:15;11.30;;;4.07;;
11185;SDS011;5649;52.422;13.754;2022-08-30T04:19:41;4.97;;;3.90;;
11185;SDS011;5649;52.422;13.754;2022-08-30T04:22:07;5.50;;;3.20;;
11185;SDS011;5649;52.422;13.754;2022-08-30T04:24:33;3.53;;;3.23;;
11185;SDS011;5649;52.422;13.754;2022-08-30T04:26:59;3.83;;;3.40;;
11185;SDS011;5649;52.422;13.754;2022-08-30T04:29:25;3.40;;;3.00;;
11185;SDS011;5649;52.422;13.754;2022-08-30T04:31:51;7.77;;;3.63;;
11185;SDS011;5649;52.422;13.754;2022-08-30T04:34:17;10.43;;;2.87;;
11185;SDS011;5649;52.422;13.754;2022-08-30T04:36:43;4.73;;;2.73;;
11185;SDS011;5649;52.422;13.754;2022-08-30T04:39:09;3.57;;;3.20;;
11185;SDS011;5649;52.422;13.754;2022-08-30T04:41:35;6.87;;;3.93;;
11185;SDS011;5649;52.422;13.754;2022-08-30T04:44:03;8.80;;;3.80;;
11185;SDS011;5649;52.422;13.754;2022-08-30T04:46:29;8.90;;;3.40;;
11185;SDS011;5649;52.422;13.754;2022-08-30T04:48:55;4.67;;;3.10;;
11185;SDS011;5649;52.422;13.754;2022-08-30T04:51:21;4.80;;;3.00;;
11185;SDS011;5649;52.422;13.754;2022-08-30T04:53:47;5.33;;;3.63;;
11185;SDS011;5649;52.422;13.754;2022-08-30T04:56:15;5.43;;;3.60;;
11185;SDS011;5649;52.422;13.754;2022-08-30T04:58:42;5.70;;;3.90;;
11185;SDS011;5649;52.422;13.754;2022-08-30T05:01:13;4.57;;;3.27;;
11185;SDS011;5649;52.422;13.754;2022-08-30T05:03:39;4.50;;;2.93;;
11185;SDS011;5649;52.422;13.754;2022-08-30T05:06:05;7.17;;;3.10;;
11185;SDS011;5649;52.422;13.754;2022-08-30T05:08:31;7.20;;;2.53;;
11185;SDS011;5649;52.422;13.754;2022-08-30T05:10:57;3.80;;;3.20;;
11185;SDS011;5649;52.422;13.754;2022-08-30T05:13:23;8.40;;;3.77;;
11185;SDS011;5649;52.422;13.754;2022-08-30T05:15:49;7.00;;;4.20;;
11185;SDS011;5649;52.422;13.754;2022-08-30T05:18:15;5.03;;;3.20;;
11185;SDS011;5649;52.422;13.754;2022-08-30T05:20:42;5.60;;;3.40;;
11185;SDS011;5649;52.422;13.754;2022-08-30T05:23:08;6.97;;;4.20;;
11185;SDS011;5649;52.422;13.754;2022-08-30T05:25:38;7.07;;;3.40;;
11185;SDS011;5649;52.422;13.754;2022-08-30T05:28:04;7.80;;;4.10;;
11185;SDS011;5649;52.422;13.754;2022-08-30T05:30:32;6.03;;;3.47;;
11185;SDS011;5649;52.422;13.754;2022-08-30T05:32:58;3.90;;;3.17;;
11185;SDS011;5649;52.422;13.754;2022-08-30T05:35:24;9.83;;;3.97;;
11185;SDS011;5649;52.422;13.754;2022-08-30T05:37:50;13.93;;;4.57;;
11185;SDS011;5649;52.422;13.754;2022-08-30T05:40:16;37.47;;;5.90;;
11185;SDS011;5649;52.422;13.754;2022-08-30T05:42:44;7.67;;;4.27;;
11185;SDS011;5649;52.422;13.754;2022-08-30T05:45:10;6.23;;;3.67;;
11185;SDS011;5649;52.422;13.754;2022-08-30T05:47:36;4.30;;;3.37;;
11185;SDS011;5649;52.422;13.754;2022-08-30T05:50:03;6.33;;;3.77;;
11185;SDS011;5649;52.422;13.754;2022-08-30T05:52:33;4.80;;;3.57;;
11185;SDS011;5649;52.422;13.754;2022-08-30T05:54:59;9.07;;;4.83;;
11185;SDS011;5649;52.422;13.754;2022-08-30T05:57:28;7.97;;;4.13;;
11185;SDS011;5649;52.422;13.754;2022-08-30T05:59:56;5.80;;;2.70;;
11185;SDS011;5649;52.422;13.754;2022-08-30T06:02:21;3.87;;;2.73;;
11185;SDS011;5649;52.422;13.754;2022-08-30T06:04:47;6.00;;;3.30;;
11185;SDS011;5649;52.422;13.754;2022-08-30T06:07:13;3.50;;;2.77;;
11185;SDS011;5649;52.422;13.754;2022-08-30T06:09:39;6.20;;;3.70;;
11185;SDS011;5649;52.422;13.754;2022-08-30T06:12:06;3.30;;;2.93;;
11185;SDS011;5649;52.422;13.754;2022-08-30T06:14:32;2.20;;;2.10;;
11185;SDS011;5649;52.422;13.754;2022-08-30T06:16:58;11.83;;;3.37;;
11185;SDS011;5649;52.422;13.754;2022-08-30T06:19:24;4.33;;;3.30;;
11185;SDS011;5649;52.422;13.754;2022-08-30T06:21:50;10.40;;;4.00;;
11185;SDS011;5649;52.422;13.754;2022-08-30T06:24:16;4.93;;;3.80;;
11185;SDS011;5649;52.422;13.754;2022-08-30T06:26:43;31.33;;;4.67;;
11185;SDS011;5649;52.422;13.754;2022-08-30T06:29:10;5.30;;;3.60;;
11185;SDS011;5649;52.422;13.754;2022-08-30T06:31:36;5.80;;;4.10;;
11185;SDS011;5649;52.422;13.754;2022-08-30T06:34:02;15.70;;;4.47;;
11185;SDS011;5649;52.422;13.754;2022-08-30T06:36:28;12.90;;;4.17;;
11185;SDS011;5649;52.422;13.754;2022-08-30T06:38:55;5.13;;;4.17;;
11185;SDS011;5649;52.422;13.754;2022-08-30T06:41:23;6.70;;;3.50;;
11185;SDS011;5649;52.422;13.754;2022-08-30T06:43:49;7.77;;;3.97;;
11185;SDS011;5649;52.422;13.754;2022-08-30T06:46:34;10.40;;;4.20;;
11185;SDS011;5649;52.422;13.754;2022-08-30T06:49:00;9.13;;;4.80;;
11185;SDS011;5649;52.422;13.754;2022-08-30T06:51:28;9.67;;;4.67;;
11185;SDS011;5649;52.422;13.754;2022-08-30T06:53:55;13.00;;;5.47;;
11185;SDS011;5649;52.422;13.754;2022-08-30T06:56:22;13.67;;;6.10;;
11185;SDS011;5649;52.422;13.754;2022-08-30T06:58:49;6.57;;;4.60;;
11185;SDS011;5649;52.422;13.754;2022-08-30T07:01:19;9.33;;;4.63;;
11185;SDS011;5649;52.422;13.754;2022-08-30T07:03:45;11.63;;;6.27;;
11185;SDS011;5649;52.422;13.754;2022-08-30T07:06:11;13.20;;;5.10;;
11185;SDS011;5649;52.422;13.754;2022-08-30T07:08:38;11.13;;;5.83;;
11185;SDS011;5649;52.422;13.754;2022-08-30T07:11:04;11.60;;;4.43;;
11185;SDS011;5649;52.422;13.754;2022-08-30T07:13:31;10.00;;;4.97;;
11185;SDS011;5649;52.422;13.754;2022-08-30T07:15:57;9.17;;;5.30;;
11185;SDS011;5649;52.422;13.754;2022-08-30T07:18:24;9.23;;;5.77;;
11185;SDS011;5649;52.422;13.754;2022-08-30T07:21:10;9.90;;;5.70;;
11185;SDS011;5649;52.422;13.754;2022-08-30T07:23:36;10.50;;;4.60;;
11185;SDS011;5649;52.422;13.754;2022-08-30T07:26:06;10.27;;;5.63;;
11185;SDS011;5649;52.422;13.754;2022-08-30T07:28:33;10.17;;;5.30;;
11185;SDS011;5649;52.422;13.754;2022-08-30T07:31:01;11.30;;;5.83;;
11185;SDS011;5649;52.422;13.754;2022-08-30T07:33:27;10.33;;;5.33;;
11185;SDS011;5649;52.422;13.754;2022-08-30T07:35:53;9.70;;;5.67;;
11185;SDS011;5649;52.422;13.754;2022-08-30T07:38:19;8.50;;;5.47;;
11185;SDS011;5649;52.422;13.754;2022-08-30T07:40:45;7.00;;;4.37;;
11185;SDS011;5649;52.422;13.754;2022-08-30T07:43:11;21.13;;;5.37;;
11185;SDS011;5649;52.422;13.754;2022-08-30T07:45:37;13.53;;;4.70;;
11185;SDS011;5649;52.422;13.754;2022-08-30T07:48:03;11.50;;;4.47;;
11185;SDS011;5649;52.422;13.754;2022-08-30T07:50:29;10.30;;;5.20;;
11185;SDS011;5649;52.422;13.754;2022-08-30T07:52:57;13.70;;;5.07;;
11185;SDS011;5649;52.422;13.754;2022-08-30T07:55:23;11.70;;;5.30;;
11185;SDS011;5649;52.422;13.754;2022-08-30T07:57:49;6.77;;;4.70;;
11185;SDS011;5649;52.422;13.754;2022-08-30T08:00:15;7.80;;;5.00;;
11185;SDS011;5649;52.422;13.754;2022-08-30T08:02:41;11.43;;;6.27;;
11185;SDS011;5649;52.422;13.754;2022-08-30T08:05:07;16.37;;;6.60;;
11185;SDS011;5649;52.422;13.754;2022-08-30T08:07:34;11.17;;;6.20;;
11185;SDS011;5649;52.422;13.754;2022-08-30T08:10:00;5.83;;;4.47;;
11185;SDS011;5649;52.422;13.754;2022-08-30T08:12:27;7.40;;;4.50;;
11185;SDS011;5649;52.422;13.754;2022-08-30T08:14:53;7.17;;;4.60;;
11185;SDS011;5649;52.422;13.754;2022-08-30T08:17:19;7.70;;;4.13;;
11185;SDS011;5649;52.422;13.754;2022-08-30T08:19:45;9.80;;;4.33;;
11185;SDS011;5649;52.422;13.754;2022-08-30T08:22:11;19.27;;;4.40;;
11185;SDS011;5649;52.422;13.754;2022-08-30T08:24:37;10.17;;;4.80;;
11185;SDS011;5649;52.422;13.754;2022-08-30T08:27:03;11.80;;;5.77;;
11185;SDS011;5649;52.422;13.754;2022-08-30T08:29:29;5.80;;;4.10;;
11185;SDS011;5649;52.422;13.754;2022-08-30T08:31:55;6.50;;;4.27;;
11185;SDS011;5649;52.422;13.754;2022-08-30T08:34:22;5.33;;;4.10;;
11185;SDS011;5649;52.422;13.754;2022-08-30T08:36:49;6.03;;;4.00;;
11185;SDS011;5649;52.422;13.754;2022-08-30T08:39:15;3.63;;;3.33;;
11185;SDS011;5649;52.422;13.754;2022-08-30T08:47:01;6.77;;;3.77;;
11185;SDS011;5649;52.422;13.754;2022-08-30T08:49:32;10.20;;;3.23;;
11185;SDS011;5649;52.422;13.754;2022-08-30T08:52:00;14.60;;;5.00;;
11185;SDS011;5649;52.422;13.754;2022-08-30T08:57:17;7.67;;;3.40;;
11185;SDS011;5649;52.422;13.754;2022-08-30T08:59:43;6.07;;;1.90;;
11185;SDS011;5649;52.422;13.754;2022-08-30T09:02:24;2.20;;;1.63;;
11185;SDS011;5649;52.422;13.754;2022-08-30T09:04:53;2.83;;;1.97;;
11185;SDS011;5649;52.422;13.754;2022-08-30T09:07:21;3.93;;;2.43;;
11185;SDS011;5649;52.422;13.754;2022-08-30T09:09:47;3.37;;;2.27;;
11185;SDS011;5649;52.422;13.754;2022-08-30T09:12:14;8.30;;;2.10;;
11185;SDS011;5649;52.422;13.754;2022-08-30T09:14:46;2.03;;;1.63;;
11185;SDS011;5649;52.422;13.754;2022-08-30T09:17:13;4.53;;;2.77;;
11185;SDS011;5649;52.422;13.754;2022-08-30T09:19:41;7.90;;;2.80;;
11185;SDS011;5649;52.422;13.754;2022-08-30T09:22:15;1.87;;;1.50;;
11185;SDS011;5649;52.422;13.754;2022-08-30T09:24:47;2.27;;;2.07;;
11185;SDS011;5649;52.422;13.754;2022-08-30T09:27:18;1.80;;;1.70;;
11185;SDS011;5649;52.422;13.754;2022-08-30T09:29:52;26.27;;;2.50;;
11185;SDS011;5649;52.422;13.754;2022-08-30T09:32:25;1.27;;;1.10;;
11185;SDS011;5649;52.422;13.754;2022-08-30T09:34:51;1.30;;;1.20;;
11185;SDS011;5649;52.422;13.754;2022-08-30T09:37:25;2.10;;;1.17;;
11185;SDS011;5649;52.422;13.754;2022-08-30T09:39:52;1.97;;;1.27;;
11185;SDS011;5649;52.422;13.754;2022-08-30T09:42:20;1.77;;;0.97;;
11185;SDS011;5649;52.422;13.754;2022-08-30T09:44:47;1.77;;;1.00;;
11185;SDS011;5649;52.422;13.754;2022-08-30T09:47:47;1.43;;;1.27;;
11185;SDS011;5649;52.422;13.754;2022-08-30T09:50:08;1.07;;;0.97;;
11185;SDS011;5649;52.422;13.754;2022-08-30T10:01:12;1.57;;;1.10;;
11185;SDS011;5649;52.422;13.754;2022-08-30T10:06:27;2.70;;;1.00;;
11185;SDS011;5649;52.422;13.754;2022-08-30T10:11:31;1.00;;;1.00;;
11185;SDS011;5649;52.422;13.754;2022-08-30T10:14:03;7.43;;;0.97;;
11185;SDS011;5649;52.422;13.754;2022-08-30T10:21:36;5.70;;;0.97;;
11185;SDS011;5649;52.422;13.754;2022-08-30T10:24:05;3.70;;;1.00;;
11185;SDS011;5649;52.422;13.754;2022-08-30T10:26:37;4.93;;;1.20;;
11185;SDS011;5649;52.422;13.754;2022-08-30T10:31:51;1.67;;;1.33;;
11185;SDS011;5649;52.422;13.754;2022-08-30T10:34:23;5.17;;;1.20;;
11185;SDS011;5649;52.422;13.754;2022-08-30T10:36:55;1.07;;;0.83;;
11185;SDS011;5649;52.422;13.754;2022-08-30T10:39:23;2.00;;;0.97;;
11185;SDS011;5649;52.422;13.754;2022-08-30T10:41:52;4.93;;;1.77;;
11185;SDS011;5649;52.422;13.754;2022-08-30T10:44:27;1.00;;;0.90;;
11185;SDS011;5649;52.422;13.754;2022-08-30T10:47:02;1.10;;;1.00;;
11185;SDS011;5649;52.422;13.754;2022-08-30T10:49:33;7.27;;;1.00;;
11185;SDS011;5649;52.422;13.754;2022-08-30T10:52:19;8.43;;;1.47;;
11185;SDS011;5649;52.422;13.754;2022-08-30T10:54:48;0.70;;;0.70;;
11185;SDS011;5649;52.422;13.754;2022-08-30T10:57:15;1.80;;;1.13;;
11185;SDS011;5649;52.422;13.754;2022-08-30T10:59:43;1.70;;;1.30;;
11185;SDS011;5649;52.422;13.754;2022-08-30T11:15:22;0.83;;;0.70;;
11185;SDS011;5649;52.422;13.754;2022-08-30T11:17:53;0.90;;;0.90;;
11185;SDS011;5649;52.422;13.754;2022-08-30T11:20:42;1.70;;;0.93;;
11185;SDS011;5649;52.422;13.754;2022-08-30T11:25:45;5.57;;;0.90;;
11185;SDS011;5649;52.422;13.754;2022-08-30T11:28:12;1.30;;;1.20;;
11185;SDS011;5649;52.422;13.754;2022-08-30T11:31:30;1.13;;;0.80;;
11185;SDS011;5649;52.422;13.754;2022-08-30T11:33:57;3.10;;;1.40;;
11185;SDS011;5649;52.422;13.754;2022-08-30T11:43:54;2.23;;;0.90;;
11185;SDS011;5649;52.422;13.754;2022-08-30T11:51:39;2.00;;;1.57;;
11185;SDS011;5649;52.422;13.754;2022-08-30T11:54:12;1.30;;;1.20;;
11185;SDS011;5649;52.422;13.754;2022-08-30T12:01:48;8.93;;;1.27;;
11185;SDS011;5649;52.422;13.754;2022-08-30T12:09:11;2.07;;;0.97;;
11185;SDS011;5649;52.422;13.754;2022-08-30T12:17:02;2.97;;;1.70;;
11185;SDS011;5649;52.422;13.754;2022-08-30T12:19:46;6.20;;;1.50;;
11185;SDS011;5649;52.422;13.754;2022-08-30T12:22:15;1.10;;;1.10;;
11185;SDS011;5649;52.422;13.754;2022-08-30T12:24:42;2.93;;;1.67;;
11185;SDS011;5649;52.422;13.754;2022-08-30T12:27:20;4.50;;;2.03;;
11185;SDS011;5649;52.422;13.754;2022-08-30T12:30:05;5.00;;;1.30;;
11185;SDS011;5649;52.422;13.754;2022-08-30T12:32:32;0.93;;;0.93;;
11185;SDS011;5649;52.422;13.754;2022-08-30T12:35:03;1.37;;;1.00;;
11185;SDS011;5649;52.422;13.754;2022-08-30T12:37:37;2.00;;;1.20;;
11185;SDS011;5649;52.422;13.754;2022-08-30T12:42:32;0.97;;;0.87;;
11185;SDS011;5649;52.422;13.754;2022-08-30T12:45:00;1.47;;;1.03;;
11185;SDS011;5649;52.422;13.754;2022-08-30T12:49:54;4.63;;;1.00;;
11185;SDS011;5649;52.422;13.754;2022-08-30T12:54:48;4.67;;;1.13;;
11185;SDS011;5649;52.422;13.754;2022-08-30T12:57:33;1.00;;;1.00;;
11185;SDS011;5649;52.422;13.754;2022-08-30T13:00:00;12.07;;;1.30;;
11185;SDS011;5649;52.422;13.754;2022-08-30T13:02:27;7.90;;;3.00;;
11185;SDS011;5649;52.422;13.754;2022-08-30T13:04:54;1.40;;;1.30;;
11185;SDS011;5649;52.422;13.754;2022-08-30T13:07:25;1.97;;;1.50;;
11185;SDS011;5649;52.422;13.754;2022-08-30T13:09:58;1.10;;;0.93;;
11185;SDS011;5649;52.422;13.754;2022-08-30T13:12:26;1.53;;;1.43;;
11185;SDS011;5649;52.422;13.754;2022-08-30T13:14:52;1.47;;;1.10;;
11185;SDS011;5649;52.422;13.754;2022-08-30T13:20:06;0.77;;;0.77;;
11185;SDS011;5649;52.422;13.754;2022-08-30T13:22:34;11.40;;;1.00;;
11185;SDS011;5649;52.422;13.754;2022-08-30T13:25:00;7.17;;;1.10;;
11185;SDS011;5649;52.422;13.754;2022-08-30T13:27:27;5.43;;;0.80;;
11185;SDS011;5649;52.422;13.754;2022-08-30T13:29:54;19.97;;;1.70;;
11185;SDS011;5649;52.422;13.754;2022-08-30T13:32:20;1.60;;;1.50;;
11185;SDS011;5649;52.422;13.754;2022-08-30T13:34:46;4.23;;;1.10;;
11185;SDS011;5649;52.422;13.754;2022-08-30T13:37:22;1.40;;;0.90;;
11185;SDS011;5649;52.422;13.754;2022-08-30T13:39:48;1.17;;;0.90;;
11185;SDS011;5649;52.422;13.754;2022-08-30T13:42:14;1.73;;;1.30;;
11185;SDS011;5649;52.422;13.754;2022-08-30T13:44:41;4.63;;;1.40;;
11185;SDS011;5649;52.422;13.754;2022-08-30T13:47:06;1.73;;;1.50;;
11185;SDS011;5649;52.422;13.754;2022-08-30T13:49:34;9.53;;;1.20;;
11185;SDS011;5649;52.422;13.754;2022-08-30T13:52:01;1.33;;;0.73;;
11185;SDS011;5649;52.422;13.754;2022-08-30T13:54:27;2.90;;;1.30;;
11185;SDS011;5649;52.422;13.754;2022-08-30T13:56:54;6.83;;;0.90;;
11185;SDS011;5649;52.422;13.754;2022-08-30T13:59:20;2.00;;;1.17;;
11185;SDS011;5649;52.422;13.754;2022-08-30T14:01:46;1.07;;;0.97;;
11185;SDS011;5649;52.422;13.754;2022-08-30T14:04:12;3.33;;;1.30;;
11185;SDS011;5649;52.422;13.754;2022-08-30T14:06:38;1.03;;;1.03;;
11185;SDS011;5649;52.422;13.754;2022-08-30T14:09:04;1.10;;;1.00;;
11185;SDS011;5649;52.422;13.754;2022-08-30T14:11:31;1.83;;;0.97;;
11185;SDS011;5649;52.422;13.754;2022-08-30T14:13:57;1.90;;;1.17;;
11185;SDS011;5649;52.422;13.754;2022-08-30T14:16:23;1.37;;;1.30;;
11185;SDS011;5649;52.422;13.754;2022-08-30T14:18:49;2.20;;;1.70;;
11185;SDS011;5649;52.422;13.754;2022-08-30T14:21:16;1.60;;;1.50;;
11185;SDS011;5649;52.422;13.754;2022-08-30T14:23:42;1.50;;;1.40;;
11185;SDS011;5649;52.422;13.754;2022-08-30T14:26:17;2.20;;;1.60;;
11185;SDS011;5649;52.422;13.754;2022-08-30T14:28:45;1.53;;;1.43;;
11185;SDS011;5649;52.422;13.754;2022-08-30T14:31:11;2.07;;;1.80;;
11185;SDS011;5649;52.422;13.754;2022-08-30T14:33:38;2.00;;;1.77;;
11185;SDS011;5649;52.422;13.754;2022-08-30T14:36:04;2.10;;;1.60;;
11185;SDS011;5649;52.422;13.754;2022-08-30T14:38:30;3.23;;;1.77;;
11185;SDS011;5649;52.422;13.754;2022-08-30T14:40:56;11.33;;;1.80;;
11185;SDS011;5649;52.422;13.754;2022-08-30T14:43:22;2.03;;;1.80;;
11185;SDS011;5649;52.422;13.754;2022-08-30T14:45:48;6.13;;;2.50;;
11185;SDS011;5649;52.422;13.754;2022-08-30T14:48:14;2.13;;;1.93;;
11185;SDS011;5649;52.422;13.754;2022-08-30T14:50:40;5.70;;;1.87;;
11185;SDS011;5649;52.422;13.754;2022-08-30T14:53:06;3.40;;;2.20;;
11185;SDS011;5649;52.422;13.754;2022-08-30T14:55:33;1.90;;;1.80;;
11185;SDS011;5649;52.422;13.754;2022-08-30T14:57:59;29.17;;;2.00;;
11185;SDS011;5649;52.422;13.754;2022-08-30T15:00:26;3.13;;;2.10;;
11185;SDS011;5649;52.422;13.754;2022-08-30T15:02:52;2.07;;;1.97;;
11185;SDS011;5649;52.422;13.754;2022-08-30T15:05:18;2.50;;;1.83;;
11185;SDS011;5649;52.422;13.754;2022-08-30T15:07:46;9.73;;;2.07;;
11185;SDS011;5649;52.422;13.754;2022-08-30T15:10:14;2.27;;;2.07;;
11185;SDS011;5649;52.422;13.754;2022-08-30T15:12:42;3.33;;;1.70;;
11185;SDS011;5649;52.422;13.754;2022-08-30T15:15:09;4.30;;;2.00;;
11185;SDS011;5649;52.422;13.754;2022-08-30T15:17:35;2.10;;;2.00;;
11185;SDS011;5649;52.422;13.754;2022-08-30T15:20:02;2.77;;;2.00;;
11185;SDS011;5649;52.422;13.754;2022-08-30T15:22:28;1.93;;;1.83;;
11185;SDS011;5649;52.422;13.754;2022-08-30T15:24:54;7.60;;;1.70;;
11185;SDS011;5649;52.422;13.754;2022-08-30T15:27:20;11.53;;;2.50;;
11185;SDS011;5649;52.422;13.754;2022-08-30T15:29:47;4.50;;;2.17;;
11185;SDS011;5649;52.422;13.754;2022-08-30T15:32:13;10.43;;;3.67;;
11185;SDS011;5649;52.422;13.754;2022-08-30T15:34:39;2.60;;;2.17;;
11185;SDS011;5649;52.422;13.754;2022-08-30T15:37:05;4.53;;;2.10;;
11185;SDS011;5649;52.422;13.754;2022-08-30T15:39:31;4.27;;;2.17;;
11185;SDS011;5649;52.422;13.754;2022-08-30T15:41:57;3.40;;;1.90;;
11185;SDS011;5649;52.422;13.754;2022-08-30T15:44:23;8.43;;;2.40;;
11185;SDS011;5649;52.422;13.754;2022-08-30T15:46:49;2.03;;;1.87;;
11185;SDS011;5649;52.422;13.754;2022-08-30T15:49:17;1.80;;;1.70;;
11185;SDS011;5649;52.422;13.754;2022-08-30T15:51:44;2.07;;;1.47;;
11185;SDS011;5649;52.422;13.754;2022-08-30T15:54:11;2.53;;;2.00;;
11185;SDS011;5649;52.422;13.754;2022-08-30T15:56:37;1.90;;;1.80;;
11185;SDS011;5649;52.422;13.754;2022-08-30T15:59:03;7.33;;;3.30;;
11185;SDS011;5649;52.422;13.754;2022-08-30T16:01:29;2.13;;;2.03;;
11185;SDS011;5649;52.422;13.754;2022-08-30T16:03:55;2.43;;;1.87;;
11185;SDS011;5649;52.422;13.754;2022-08-30T16:06:23;4.57;;;1.87;;
11185;SDS011;5649;52.422;13.754;2022-08-30T16:08:49;4.77;;;1.70;;
11185;SDS011;5649;52.422;13.754;2022-08-30T16:11:17;2.40;;;2.20;;